This is the latest recevied weather packets stored in our database for station/object K5OBH. If no packets are shown the sender has not sent any weather packets the latest 10 day(s).
| Time | Temp. | Humidity | Pressure | Rain* | Wind** | Luminosity | Snow |
|---|---|---|---|---|---|---|---|
| 1777761766 | 23.89° C | 40% | 1017.8 hPa | 0 mm | - | 275 W/m² | - |
| 1777761464 | 23.33° C | 40% | 1017.8 hPa | 0 mm | - | 291 W/m² | - |
| 1777761162 | 23.89° C | 40% | 1018.1 hPa | 0 mm | - | 304 W/m² | - |
| 1777760859 | 23.89° C | 37% | 1018 hPa | 0 mm | - | 322 W/m² | - |
| 1777760555 | 23.33° C | 39% | 1018 hPa | 0 mm | - | 333 W/m² | - |
| 1777760251 | 23.89° C | 41% | 1018 hPa | 0 mm | - | 348 W/m² | - |
| 1777759948 | 23.33° C | 40% | 1018.4 hPa | 0 mm | - | 362 W/m² | - |
| 1777759645 | 23.33° C | 42% | 1018.2 hPa | 0 mm | - | 377 W/m² | - |
| 1777759341 | 23.33° C | 40% | 1018.1 hPa | 0 mm | - | 392 W/m² | - |
| 1777759038 | 23.33° C | 43% | 1018 hPa | 0 mm | - | 408 W/m² | - |
| 1777758735 | 23.89° C | 40% | 1018.4 hPa | 0 mm | - | 418 W/m² | - |
| 1777758432 | 23.89° C | 39% | 1018.4 hPa | 0 mm | - | 434 W/m² | - |
| 1777758129 | 23.89° C | 40% | 1018.4 hPa | 0 mm | - | 448 W/m² | - |
| 1777757826 | 23.89° C | 40% | 1018.5 hPa | 0 mm | - | 462 W/m² | - |
| 1777757523 | 23.89° C | 40% | 1018.6 hPa | 0 mm | - | 474 W/m² | - |
| 1777757222 | 23.33° C | 42% | 1018.5 hPa | 0 mm | - | 495 W/m² | - |
| 1777756920 | 23.89° C | 39% | 1018.7 hPa | 0 mm | - | 504 W/m² | - |
| 1777756615 | 23.89° C | 40% | 1018.8 hPa | 0 mm | - | 522 W/m² | - |
| 1777756313 | 24.44° C | 40% | 1018.8 hPa | 0 mm | - | 534 W/m² | - |
| 1777756010 | 23.89° C | 41% | 1018.7 hPa | 0 mm | - | 544 W/m² | - |
| 1777755707 | 23.89° C | 40% | 1018.8 hPa | 0 mm | - | 552 W/m² | - |
| 1777755404 | 23.89° C | 41% | 1019 hPa | 0 mm | - | 567 W/m² | - |
| 1777755100 | 23.33° C | 42% | 1019 hPa | 0 mm | - | 579 W/m² | - |
| 1777754798 | 23.89° C | 40% | 1019.3 hPa | 0 mm | - | 593 W/m² | - |
| 1777754495 | 22.78° C | 42% | 1018.9 hPa | 0 mm | - | 599 W/m² | - |
* Rain latest hour (hover to see other rain measurements)
** Current wind speed in m/s (hover to see current wind gust speed)